Time;durP1;ratioP1;P1;durP2;ratioP2;P2;SDS_P1;SDS_P2;PMS_P1;PMS_P2;Temp;Humidity;BMP_temperature;BMP_pressure;BME280_temperature;BME280_humidity;BME280_pressure;Samples;Min_cycle;Max_cycle;Signal;HPM_P1;HPM_P2
2022/04/30 00:01:11;;;;;;;11.00;5.90;;;;;;;11.44;44.94;99838.80;233514;1215;139604;-63
2022/04/30 00:06:15;;;;;;;11.30;6.10;;;;;;;11.38;45.09;99835.00;233296;1217;139760;-65
2022/04/30 00:11:18;;;;;;;10.30;5.40;;;;;;;11.30;44.63;99839.84;232540;1217;139423;-65
2022/04/30 00:16:21;;;;;;;10.80;5.60;;;;;;;11.25;44.87;99839.27;233538;1217;138746;-65
2022/04/30 00:21:24;;;;;;;9.90;5.70;;;;;;;11.18;44.99;99836.80;233598;1217;138596;-65
2022/04/30 00:26:27;;;;;;;12.40;5.90;;;;;;;11.12;45.19;99835.83;233636;1215;138492;-64
2022/04/30 00:31:30;;;;;;;11.40;5.80;;;;;;;11.09;45.24;99832.04;233388;1217;138493;-64
2022/04/30 00:36:34;;;;;;;13.90;5.70;;;;;;;11.11;45.44;99833.73;233792;1215;138732;-65
2022/04/30 00:41:44;;;;;;;10.00;6.30;;;;;;;11.10;45.27;99829.34;232562;1216;139385;-64
2022/04/30 00:46:47;;;;;;;12.60;6.80;;;;;;;11.06;45.27;99826.54;234069;1217;139150;-64
2022/04/30 00:51:52;;;;;;;15.20;6.50;;;;;;;10.99;45.55;99828.67;233736;1217;138768;-63
2022/04/30 00:57:02;;;;;;;15.30;7.10;;;;;;;10.92;45.67;99829.91;233614;1217;138771;-63
2022/04/30 01:02:09;;;;;;;13.70;7.20;;;;;;;10.84;45.99;99828.91;233736;1217;138928;-64
2022/04/30 01:07:32;;;;;;;14.50;7.20;;;;;;;10.75;46.16;99831.16;233056;1217;138495;-63
2022/04/30 01:12:36;;;;;;;13.00;6.90;;;;;;;10.69;46.66;99830.06;231489;1216;139815;-61
2022/04/30 01:17:42;;;;;;;15.20;7.10;;;;;;;10.62;46.57;99830.72;233661;1216;139035;-63
2022/04/30 01:22:59;;;;;;;16.90;7.30;;;;;;;10.54;46.80;99825.45;233109;1216;138857;-61
2022/04/30 01:28:03;;;;;;;17.20;8.90;;;;;;;10.44;47.09;99825.39;233833;1216;139117;-62
2022/04/30 01:38:28;;;;;;;16.10;10.00;;;;;;;10.34;47.47;99821.27;233487;1217;138939;-63
2022/04/30 01:43:33;;;;;;;16.50;8.90;;;;;;;10.30;47.44;99822.91;233461;1217;139308;-61
2022/04/30 01:48:36;;;;;;;18.30;8.80;;;;;;;10.18;47.57;99826.79;233622;1216;139425;-62
2022/04/30 01:53:40;;;;;;;16.60;8.60;;;;;;;10.09;47.86;99828.65;233524;1217;139206;-60
2022/04/30 01:58:43;;;;;;;15.50;8.80;;;;;;;10.00;48.17;99828.18;233916;1216;138938;-61
2022/04/30 02:03:46;;;;;;;20.70;11.10;;;;;;;9.93;48.38;99825.86;232503;1217;139088;-63
2022/04/30 02:08:50;;;;;;;23.50;11.10;;;;;;;9.87;48.50;99820.29;233075;1217;139388;-63
2022/04/30 02:13:56;;;;;;;22.70;11.70;;;;;;;9.84;48.59;99815.98;233523;1217;138354;-63
2022/04/30 02:19:01;;;;;;;;;;;;;;;9.76;48.63;99804.85;233351;1216;139632;-63
2022/04/30 02:24:05;;;;;;;19.10;10.70;;;;;;;9.67;48.71;99803.83;233729;1216;124925;-64
2022/04/30 02:29:08;;;;;;;23.40;11.30;;;;;;;9.65;49.04;99803.74;233536;1217;138684;-65
2022/04/30 02:34:11;;;;;;;21.20;11.80;;;;;;;9.62;49.05;99794.31;233472;1217;139402;-64
2022/04/30 02:39:14;;;;;;;20.30;11.60;;;;;;;9.55;49.03;99793.05;233666;1217;138899;-64
2022/04/30 02:44:18;;;;;;;21.80;11.10;;;;;;;9.50;49.18;99788.32;233558;1217;138874;-62
2022/04/30 02:49:21;;;;;;;68.00;45.60;;;;;;;9.44;49.51;99781.30;233695;1216;138893;-59
2022/04/30 02:54:24;;;;;;;28.90;15.40;;;;;;;9.43;49.56;99777.11;233636;1216;139339;-61
2022/04/30 03:04:52;;;;;;;18.80;9.70;;;;;;;9.39;49.36;99770.92;233823;1217;139119;-61
2022/04/30 03:09:55;;;;;;;20.00;10.70;;;;;;;9.32;49.56;99773.75;233793;1217;138649;-63
2022/04/30 03:14:58;;;;;;;84.10;52.10;;;;;;;9.29;49.98;99775.85;232987;1217;138582;-59
2022/04/30 03:25:23;;;;;;;20.10;10.20;;;;;;;9.13;49.65;99782.89;232753;1216;140390;-61
2022/04/30 03:30:29;;;;;;;20.10;9.70;;;;;;;9.02;49.70;99787.09;233039;1217;138933;-65
2022/04/30 03:35:32;;;;;;;23.80;10.60;;;;;;;8.86;49.88;99791.14;233459;1217;139006;-66
2022/04/30 03:40:39;;;;;;;16.90;9.70;;;;;;;8.77;50.20;99790.14;233553;1217;138149;-66
2022/04/30 03:45:42;;;;;;;17.20;9.20;;;;;;;8.74;50.11;99792.70;233596;1217;139127;-66
2022/04/30 03:50:45;;;;;;;19.20;10.30;;;;;;;8.70;50.38;99788.29;233650;1217;138479;-64
2022/04/30 03:55:48;;;;;;;16.70;9.30;;;;;;;8.65;50.63;99786.55;233772;1217;138723;-64
2022/04/30 04:00:54;;;;;;;20.60;9.80;;;;;;;8.68;50.85;99788.90;233503;1217;138878;-63
2022/04/30 04:05:58;;;;;;;12.90;7.60;;;;;;;8.78;50.97;99790.27;233449;1216;138487;-62
2022/04/30 04:11:03;;;;;;;15.40;7.20;;;;;;;8.87;50.72;99792.69;233845;1216;138473;-65
2022/04/30 04:21:27;;;;;;;17.20;9.30;;;;;;;9.20;50.39;99790.56;233045;1217;138992;-65
2022/04/30 04:26:30;;;;;;;21.60;11.80;;;;;;;9.37;50.33;99791.02;233716;1217;138164;-65
2022/04/30 04:31:33;;;;;;;21.20;12.10;;;;;;;9.53;50.06;99791.89;233161;1217;138342;-66
2022/04/30 04:36:37;;;;;;;19.10;11.40;;;;;;;9.67;50.18;99790.57;233627;1217;138766;-66
2022/04/30 04:41:44;;;;;;;23.80;12.60;;;;;;;9.74;50.03;99790.05;233745;1217;138930;-65
2022/04/30 04:46:48;;;;;;;25.10;13.20;;;;;;;9.85;49.79;99785.48;233773;1216;139467;-65
2022/04/30 04:51:51;;;;;;;22.00;12.20;;;;;;;10.00;49.83;99789.52;233617;1217;139384;-65
2022/04/30 04:56:54;;;;;;;30.10;12.40;;;;;;;10.17;49.67;99791.56;233578;1217;138957;-65
2022/04/30 05:01:57;;;;;;;17.70;9.70;;;;;;;10.35;49.49;99786.30;233793;1217;139385;-60
2022/04/30 05:07:00;;;;;;;14.60;9.40;;;;;;;10.53;49.27;99783.64;233707;1217;139091;-63
2022/04/30 05:12:04;;;;;;;16.80;8.60;;;;;;;10.70;48.84;99788.42;233611;1217;138893;-63
2022/04/30 05:17:07;;;;;;;13.60;7.50;;;;;;;10.90;48.51;99782.62;233698;1217;139181;-63
2022/04/30 05:22:11;;;;;;;14.90;7.90;;;;;;;11.11;48.17;99780.63;233564;1217;138662;-61
2022/04/30 05:27:14;;;;;;;13.90;8.10;;;;;;;11.36;47.79;99776.49;233801;1217;138927;-63
2022/04/30 05:32:17;;;;;;;15.40;8.60;;;;;;;11.62;47.51;99778.98;233518;1217;140894;-63
2022/04/30 05:37:20;;;;;;;13.70;7.90;;;;;;;11.84;47.30;99773.55;233771;1217;139179;-61
2022/04/30 05:42:23;;;;;;;16.80;8.30;;;;;;;12.06;47.05;99777.14;233630;1217;139167;-66
2022/04/30 05:47:26;;;;;;;14.10;8.10;;;;;;;12.27;46.74;99778.42;233513;1217;139322;-65
2022/04/30 05:52:29;;;;;;;13.50;7.90;;;;;;;12.50;46.62;99775.17;231662;1217;140676;-63
2022/04/30 05:57:32;;;;;;;17.80;8.30;;;;;;;12.74;46.45;99773.94;232429;1217;139545;-68
2022/04/30 06:02:35;;;;;;;12.10;7.50;;;;;;;12.93;46.48;99772.58;233679;1217;138888;-62
2022/04/30 06:07:39;;;;;;;10.50;5.90;;;;;;;13.11;46.53;99767.60;233648;1217;138889;-62
2022/04/30 06:12:41;;;;;;;13.50;6.50;;;;;;;13.33;45.79;99770.39;233161;1218;140326;-60
2022/04/30 06:17:45;;;;;;;12.10;5.90;;;;;;;13.49;45.50;99767.05;232756;1217;138836;-61
2022/04/30 06:22:48;;;;;;;9.60;5.60;;;;;;;13.65;45.51;99767.30;233388;1216;138587;-61
2022/04/30 06:27:51;;;;;;;12.40;6.00;;;;;;;13.84;44.57;99766.61;233613;1217;138616;-62
2022/04/30 06:32:54;;;;;;;11.60;7.00;;;;;;;14.06;44.43;99764.37;233100;1217;138895;-63
2022/04/30 06:37:57;;;;;;;14.10;6.80;;;;;;;14.28;44.24;99763.42;233671;1217;139145;-64
2022/04/30 06:43:00;;;;;;;10.70;6.80;;;;;;;14.45;44.04;99758.73;233644;1217;139416;-63
2022/04/30 06:48:03;;;;;;;9.80;6.50;;;;;;;14.63;43.68;99760.58;233594;1217;138763;-63
2022/04/30 06:58:27;;;;;;;10.50;6.00;;;;;;;14.93;43.30;99758.23;233715;1215;139731;-64
2022/04/30 07:03:30;;;;;;;10.60;5.70;;;;;;;15.06;43.07;99756.58;231783;1217;139328;-65
2022/04/30 07:08:34;;;;;;;10.70;6.40;;;;;;;15.20;42.92;99755.09;231688;1217;139121;-65
2022/04/30 07:13:37;;;;;;;9.20;5.60;;;;;;;15.32;42.81;99754.98;233687;1215;139039;-63
2022/04/30 07:18:41;;;;;;;11.70;6.00;;;;;;;15.46;42.53;99756.30;233388;1217;138709;-61
2022/04/30 07:23:44;;;;;;;11.30;5.90;;;;;;;15.62;42.45;99751.45;233408;1217;139624;-61
2022/04/30 07:28:47;;;;;;;11.50;4.90;;;;;;;15.70;41.89;99750.36;233987;1217;138682;-62
2022/04/30 07:33:51;;;;;;;8.60;5.00;;;;;;;15.80;41.29;99751.20;233545;1217;139638;-61
2022/04/30 07:38:55;;;;;;;8.60;5.00;;;;;;;15.91;40.87;99750.98;233525;1217;138652;-64
2022/04/30 07:43:58;;;;;;;10.60;5.30;;;;;;;15.96;40.68;99748.69;233697;1217;138582;-64
2022/04/30 07:49:01;;;;;;;9.20;4.90;;;;;;;16.06;40.66;99743.09;233584;1217;139040;-65
2022/04/30 07:54:05;;;;;;;7.10;5.10;;;;;;;16.16;40.11;99739.27;233648;1217;138619;-64
2022/04/30 07:59:08;;;;;;;10.60;5.40;;;;;;;16.25;40.06;99738.59;233895;1217;139132;-63
2022/04/30 08:04:11;;;;;;;7.20;4.90;;;;;;;16.37;39.58;99740.64;233578;1217;138514;-61
2022/04/30 08:09:15;;;;;;;8.20;5.10;;;;;;;16.49;39.49;99737.88;233504;1217;139443;-62
2022/04/30 08:14:17;;;;;;;8.40;5.30;;;;;;;16.60;39.30;99744.42;233579;1217;138616;-63
2022/04/30 08:19:21;;;;;;;10.80;5.40;;;;;;;16.69;39.16;99740.31;233577;1217;140745;-65
2022/04/30 08:24:24;;;;;;;10.50;5.50;;;;;;;16.83;38.72;99744.16;232583;1217;139205;-64
2022/04/30 08:29:28;;;;;;;8.90;5.50;;;;;;;16.91;38.83;99755.02;233775;1217;139520;-61
2022/04/30 08:34:31;;;;;;;10.10;5.20;;;;;;;17.01;38.59;99750.58;233500;1217;138933;-63
2022/04/30 08:39:34;;;;;;;8.40;5.10;;;;;;;17.12;38.23;99751.39;233571;1217;138694;-66
2022/04/30 08:44:38;;;;;;;8.00;4.60;;;;;;;17.22;37.81;99755.59;233479;1217;152410;-61
2022/04/30 08:49:42;;;;;;;10.10;5.50;;;;;;;17.31;37.51;99748.13;232258;1217;138969;-62
2022/04/30 08:54:45;;;;;;;73.10;49.00;;;;;;;17.52;40.15;99741.98;233594;1217;140014;-60
2022/04/30 08:59:51;;;;;;;18.80;12.50;;;;;;;18.32;42.79;99742.90;233512;1217;139675;-61
2022/04/30 09:04:54;;;;;;;24.40;15.00;;;;;;;19.01;41.80;99738.52;233444;1217;139282;-60
2022/04/30 09:10:00;;;;;;;17.20;11.60;;;;;;;19.44;41.41;99733.71;233536;1217;138623;-61
2022/04/30 09:15:13;;;;;;;8.60;5.90;;;;;;;19.79;40.60;99722.86;233008;1217;140117;-60
2022/04/30 09:20:19;;;;;;;9.50;6.20;;;;;;;19.80;38.75;99716.66;233710;1217;138905;-61
2022/04/30 09:25:23;;;;;;;8.70;6.30;;;;;;;19.58;37.62;99713.86;233478;1217;141807;-60
2022/04/30 09:30:41;;;;;;;10.10;6.70;;;;;;;19.46;37.16;99706.69;232965;1217;139260;-61
2022/04/30 09:41:08;;;;;;;10.90;5.80;;;;;;;19.09;36.71;99700.72;233682;1217;139282;-62
2022/04/30 09:46:11;;;;;;;9.60;6.50;;;;;;;18.96;36.75;99694.85;233432;1217;139598;-60
2022/04/30 09:56:40;;;;;;;13.80;7.80;;;;;;;18.78;36.43;99682.80;233438;1217;139528;-62
2022/04/30 10:01:49;;;;;;;8.60;5.40;;;;;;;18.78;36.78;99681.70;233336;1217;141734;-61
2022/04/30 10:06:53;;;;;;;10.90;6.00;;;;;;;18.83;36.48;99677.98;233573;1217;139055;-62
2022/04/30 10:11:56;;;;;;;9.70;6.10;;;;;;;18.84;36.42;99668.98;233569;1217;139504;-62
2022/04/30 10:17:38;;;;;;;8.60;6.20;;;;;;;18.98;36.63;99667.02;233570;1217;139423;-61
2022/04/30 10:22:31;;;;;;;10.00;5.70;;;;;;;19.22;36.60;99666.52;232635;1217;138926;-60
2022/04/30 10:27:41;;;;;;;14.90;8.80;;;;;;;19.48;36.21;99662.81;233694;1217;140540;-61
2022/04/30 10:32:55;;;;;;;10.10;6.00;;;;;;;19.70;35.97;99656.14;233369;1217;139829;-59
2022/04/30 10:38:25;;;;;;;12.50;5.70;;;;;;;19.76;35.80;99653.25;233100;1217;138734;-60
2022/04/30 10:43:34;;;;;;;10.20;5.70;;;;;;;19.77;35.31;99647.46;232449;1217;138750;-59
2022/04/30 10:48:37;;;;;;;11.10;5.40;;;;;;;19.82;35.28;99642.45;233690;1217;140058;-59
2022/04/30 10:53:45;;;;;;;11.40;6.20;;;;;;;20.06;35.07;99641.38;233518;1217;138918;-58
2022/04/30 10:58:51;;;;;;;8.90;5.80;;;;;;;20.36;34.77;99632.45;233745;1217;141377;-59
2022/04/30 11:03:55;;;;;;;10.10;5.40;;;;;;;20.70;34.52;99625.87;232889;1217;139523;-58
2022/04/30 11:09:06;;;;;;;9.80;5.70;;;;;;;21.15;34.13;99616.55;232799;1217;138909;-58
2022/04/30 11:14:11;;;;;;;9.40;5.30;;;;;;;21.58;33.95;99610.55;232477;1217;139743;-60
2022/04/30 11:19:17;;;;;;;11.10;5.60;;;;;;;21.95;33.75;99604.29;232306;1217;138958;-58
2022/04/30 11:24:30;;;;;;;7.30;5.40;;;;;;;22.22;33.18;99599.55;232890;1217;139590;-60
2022/04/30 11:29:38;;;;;;;9.50;5.50;;;;;;;22.39;32.89;99597.29;231692;1217;139559;-62
2022/04/30 11:34:47;;;;;;;10.00;6.00;;;;;;;22.50;32.59;99596.45;231574;1217;138697;-59
2022/04/30 11:40:12;;;;;;;10.60;5.30;;;;;;;22.51;31.65;99590.35;231538;1217;138796;-59
2022/04/30 11:45:31;;;;;;;11.80;5.40;;;;;;;22.60;31.70;99584.89;231702;1217;139448;-61
2022/04/30 11:50:39;;;;;;;9.30;5.00;;;;;;;22.56;31.53;99578.80;231549;1216;139858;-59
2022/04/30 11:55:43;;;;;;;7.20;5.00;;;;;;;22.43;31.38;99579.48;231795;1217;139194;-60
2022/04/30 12:00:53;;;;;;;7.80;4.30;;;;;;;22.36;31.37;99570.75;232040;1217;138582;-58
2022/04/30 12:06:02;;;;;;;8.20;4.30;;;;;;;22.24;31.35;99570.69;231281;1217;138513;-60
2022/04/30 12:11:06;;;;;;;7.10;4.40;;;;;;;22.00;31.34;99566.18;231388;1217;139336;-60
2022/04/30 12:16:16;;;;;;;8.40;4.60;;;;;;;21.84;31.29;99561.86;231290;1217;138734;-60
2022/04/30 12:26:56;;;;;;;9.70;4.80;;;;;;;21.58;30.97;99552.95;231568;1217;138391;-59
2022/04/30 12:32:04;;;;;;;6.60;4.60;;;;;;;21.50;31.06;99552.26;231553;1217;138727;-58
2022/04/30 12:37:08;;;;;;;9.70;4.40;;;;;;;21.47;31.33;99553.55;231641;1215;140060;-59
2022/04/30 12:42:13;;;;;;;8.30;5.00;;;;;;;21.49;31.45;99553.04;231561;1217;138706;-60
2022/04/30 12:47:22;;;;;;;119.40;87.60;;;;;;;21.55;31.34;99549.12;231388;1217;138808;-58
2022/04/30 12:52:27;;;;;;;;;;;;;;;21.59;31.97;99545.79;231291;1217;139561;-59
2022/04/30 12:57:32;;;;;;;9.30;5.60;;;;;;;21.70;32.75;99542.35;231934;1217;125204;-60
2022/04/30 13:02:35;;;;;;;6.10;4.60;;;;;;;21.72;32.88;99535.30;233657;1217;138744;-60
2022/04/30 13:07:40;;;;;;;8.30;4.50;;;;;;;21.65;32.92;99538.80;233690;1217;138824;-60
2022/04/30 13:18:07;;;;;;;14.10;5.40;;;;;;;21.53;32.54;99537.70;233718;1217;138975;-60
2022/04/30 13:23:10;;;;;;;6.50;4.80;;;;;;;21.38;31.97;99537.91;233760;1217;138722;-62
2022/04/30 13:28:13;;;;;;;8.30;4.70;;;;;;;21.18;31.63;99530.77;233575;1217;139128;-62
2022/04/30 13:33:18;;;;;;;7.30;4.50;;;;;;;21.04;31.56;99526.27;233614;1217;229721;-61
2022/04/30 13:38:22;;;;;;;7.90;4.80;;;;;;;20.96;31.41;99521.59;231864;1217;139061;-60
2022/04/30 13:43:26;;;;;;;7.90;4.60;;;;;;;20.90;31.48;99516.65;233333;1217;139444;-61
2022/04/30 13:48:29;;;;;;;8.70;4.30;;;;;;;20.87;31.74;99512.63;233689;1217;139344;-60
2022/04/30 13:59:07;;;;;;;8.90;4.50;;;;;;;20.60;31.71;99504.56;230028;1235;661876;-61
2022/04/30 14:04:10;;;;;;;9.30;4.20;;;;;;;20.40;31.84;99504.33;232247;1223;138242;-61
2022/04/30 14:09:13;;;;;;;6.70;4.50;;;;;;;20.30;31.90;99493.71;231421;1223;138184;-60
2022/04/30 14:19:38;;;;;;;8.10;5.60;;;;;;;20.17;31.96;99491.21;232012;1222;138451;-60
2022/04/30 14:24:41;;;;;;;8.30;5.20;;;;;;;20.12;32.04;99484.96;232507;1223;138315;-62
2022/04/30 14:29:46;;;;;;;12.90;5.30;;;;;;;20.11;32.15;99478.96;232252;1223;137408;-61
2022/04/30 14:34:49;;;;;;;9.40;5.40;;;;;;;20.06;32.13;99483.02;231986;1223;138071;-61
2022/04/30 14:39:52;;;;;;;9.80;5.10;;;;;;;20.08;32.24;99486.22;231993;1223;139734;-60
2022/04/30 15:16:27;;;;;;;46.30;22.30;;;;;;;19.19;33.98;99473.28;229918;1233;635304;-59
2022/04/30 15:21:31;;;;;;;13.70;8.50;;;;;;;19.26;34.29;99469.17;232357;1223;138105;-59
2022/04/30 15:26:35;;;;;;;14.70;9.20;;;;;;;19.50;34.24;99471.09;231873;1224;138232;-60
2022/04/30 15:31:38;;;;;;;15.20;9.00;;;;;;;19.71;33.95;99465.89;231938;1223;137879;-59
2022/04/30 15:36:41;;;;;;;9.10;5.00;;;;;;;20.02;33.87;99459.46;231768;1223;138319;-59
2022/04/30 15:41:45;;;;;;;8.70;5.30;;;;;;;20.26;33.75;99456.63;232882;1223;137979;-59
2022/04/30 15:52:10;;;;;;;8.70;4.10;;;;;;;20.82;33.02;99453.14;231382;1220;138975;-59
2022/04/30 15:57:14;;;;;;;8.00;4.70;;;;;;;21.08;32.84;99452.84;233228;1220;137929;-59
2022/04/30 16:02:18;;;;;;;8.70;4.50;;;;;;;21.33;32.35;99449.40;232746;1220;138653;-59
2022/04/30 16:07:21;;;;;;;6.70;4.40;;;;;;;21.48;32.18;99447.77;232776;1223;137917;-60
2022/04/30 16:12:25;;;;;;;5.70;4.20;;;;;;;21.58;32.03;99447.85;232022;1223;137859;-62
2022/04/30 16:17:28;;;;;;;6.90;4.00;;;;;;;21.80;31.81;99446.30;231508;1223;138080;-61
2022/04/30 16:22:31;;;;;;;6.00;3.90;;;;;;;21.92;31.47;99441.78;231521;1222;138099;-61
2022/04/30 16:27:35;;;;;;;9.40;4.10;;;;;;;21.74;30.99;99437.53;231083;1221;139406;-60
2022/04/30 16:32:38;;;;;;;227.80;203.00;;;;;;;21.54;31.12;99436.70;233383;1222;138130;-60
2022/04/30 16:37:44;;;;;;;12.30;5.50;;;;;;;21.37;31.02;99434.38;232497;1223;138876;-60
2022/04/30 16:42:47;;;;;;;8.80;4.20;;;;;;;21.09;30.79;99430.83;232961;1222;138144;-61
2022/04/30 16:47:54;;;;;;;6.20;4.40;;;;;;;20.86;30.65;99440.01;231908;1221;138046;-61
2022/04/30 16:52:57;;;;;;;7.10;4.40;;;;;;;20.63;30.67;99440.13;232372;1221;138718;-60
2022/04/30 16:58:00;;;;;;;53.90;34.80;;;;;;;20.44;30.91;99445.86;232216;1220;138065;-60
2022/04/30 17:03:04;;;;;;;211.80;153.50;;;;;;;20.40;31.82;99446.59;232999;1223;140431;-61
2022/04/30 17:08:07;;;;;;;10.80;5.70;;;;;;;20.31;31.50;99444.03;233236;1222;138774;-61
2022/04/30 17:13:12;;;;;;;8.00;4.20;;;;;;;20.06;31.21;99448.42;233144;1221;138394;-61
2022/04/30 17:18:15;;;;;;;8.80;3.70;;;;;;;19.82;31.29;99443.13;233324;1220;138319;-61
2022/04/30 17:23:18;;;;;;;8.60;3.80;;;;;;;19.61;31.38;99442.77;233151;1221;138378;-60
2022/04/30 17:28:21;;;;;;;7.20;4.00;;;;;;;19.42;31.58;99442.17;232977;1222;138247;-61
2022/04/30 17:38:50;;;;;;;9.00;4.00;;;;;;;19.11;31.46;99451.42;233143;1220;138647;-60
2022/04/30 17:43:53;;;;;;;11.10;3.90;;;;;;;18.94;31.74;99451.69;233335;1221;138258;-61
2022/04/30 17:48:56;;;;;;;8.80;4.00;;;;;;;18.76;32.01;99458.80;231732;1222;138357;-61
2022/04/30 17:53:59;;;;;;;10.20;5.90;;;;;;;18.56;32.02;99459.76;231056;1222;137872;-61
2022/04/30 17:59:02;;;;;;;89.20;68.80;;;;;;;18.40;32.30;99457.27;231967;1221;138301;-61
2022/04/30 18:04:05;;;;;;;22.30;12.80;;;;;;;18.32;32.75;99456.13;232917;1221;138550;-60
2022/04/30 18:09:09;;;;;;;15.60;7.40;;;;;;;18.22;32.69;99457.41;232849;1221;138551;-60
2022/04/30 18:14:15;;;;;;;9.40;6.20;;;;;;;18.00;32.84;99460.20;233248;1221;138183;-61
2022/04/30 18:19:18;;;;;;;12.60;6.80;;;;;;;17.83;32.91;99463.98;232965;1222;139697;-61
2022/04/30 18:24:21;;;;;;;13.10;6.40;;;;;;;17.66;33.13;99466.80;233076;1222;139028;-61
2022/04/30 18:29:27;;;;;;;10.30;6.60;;;;;;;17.53;33.36;99474.74;233162;1223;138360;-59
2022/04/30 18:34:31;;;;;;;13.00;6.60;;;;;;;17.40;33.60;99478.35;233164;1222;138289;-59
2022/04/30 18:39:34;;;;;;;10.90;6.10;;;;;;;17.29;33.61;99482.88;232538;1221;138036;-62
2022/04/30 18:44:37;;;;;;;94.60;68.00;;;;;;;17.15;33.87;99483.65;233340;1221;138102;-60
2022/04/30 18:49:40;;;;;;;30.10;18.00;;;;;;;17.08;34.44;99491.41;232622;1222;138337;-61
2022/04/30 19:05:28;;;;;;;14.70;8.40;;;;;;;16.67;34.77;99493.05;233145;1221;138623;-61
2022/04/30 19:10:31;;;;;;;15.60;9.20;;;;;;;16.52;35.00;99497.09;231486;1222;138830;-60
2022/04/30 19:15:36;;;;;;;19.00;9.70;;;;;;;16.38;35.23;99496.64;233111;1223;138040;-59
2022/04/30 19:20:44;;;;;;;17.80;9.70;;;;;;;16.22;35.64;99499.68;232671;1221;138660;-61
2022/04/30 19:25:49;;;;;;;17.10;10.20;;;;;;;16.07;35.75;99500.83;231993;1221;138225;-60
2022/04/30 19:30:52;;;;;;;;;;;;;;;15.94;36.05;99504.86;232921;1221;138539;-61
2022/04/30 19:35:56;;;;;;;17.00;11.10;;;;;;;15.79;36.25;99508.67;232176;1221;124603;-61
2022/04/30 19:40:59;;;;;;;17.80;11.20;;;;;;;15.65;36.53;99504.17;233201;1221;138555;-60
2022/04/30 19:46:03;;;;;;;18.90;11.00;;;;;;;15.53;36.99;99501.31;232934;1221;139425;-60
2022/04/30 19:51:07;;;;;;;23.00;11.90;;;;;;;15.41;37.38;99503.81;232849;1221;139184;-60
2022/04/30 19:56:10;;;;;;;130.50;98.00;;;;;;;15.30;37.74;99503.89;232123;1221;139206;-60
2022/04/30 20:01:13;;;;;;;29.00;18.00;;;;;;;15.42;38.69;99498.17;231749;1221;138871;-60
2022/04/30 20:06:22;;;;;;;32.10;15.80;;;;;;;15.38;38.25;99494.39;232469;1221;139134;-60
2022/04/30 20:16:50;;;;;;;59.90;41.60;;;;;;;15.05;38.90;99491.14;233310;1221;140068;-60
2022/04/30 20:21:59;;;;;;;34.90;19.50;;;;;;;14.96;39.37;99498.06;233214;1221;139323;-60
2022/04/30 20:27:04;;;;;;;34.90;19.30;;;;;;;14.82;39.53;99504.20;231248;1220;139105;-60
2022/04/30 20:37:32;;;;;;;33.10;18.70;;;;;;;14.57;40.12;99506.72;231563;1220;138731;-60
2022/04/30 20:42:35;;;;;;;34.40;19.70;;;;;;;14.40;40.16;99504.65;232642;1220;138920;-59
2022/04/30 20:47:38;;;;;;;32.10;19.20;;;;;;;14.26;40.57;99506.05;232495;1219;138990;-62
2022/04/30 20:52:42;;;;;;;36.40;21.20;;;;;;;14.15;40.70;99506.61;232194;1220;138807;-58
2022/04/30 20:57:45;;;;;;;36.50;20.90;;;;;;;14.05;40.94;99502.80;233399;1219;138646;-60
2022/04/30 21:02:49;;;;;;;36.50;22.60;;;;;;;13.99;41.13;99504.81;233622;1220;138563;-60
2022/04/30 21:07:53;;;;;;;36.20;22.60;;;;;;;13.90;41.07;99503.14;231988;1220;138336;-60
2022/04/30 21:12:57;;;;;;;42.50;24.00;;;;;;;13.81;41.56;99504.13;231950;1220;138552;-60
2022/04/30 21:18:00;;;;;;;37.60;23.60;;;;;;;13.70;41.49;99498.95;232688;1220;139011;-61
2022/04/30 21:23:04;;;;;;;41.90;25.60;;;;;;;13.59;41.74;99503.98;232118;1220;138205;-61
2022/04/30 21:28:10;;;;;;;42.20;26.30;;;;;;;13.52;41.99;99502.34;232013;1220;139908;-59
2022/04/30 21:33:13;;;;;;;47.40;26.50;;;;;;;13.43;41.99;99496.33;232065;1219;138552;-60
2022/04/30 21:38:17;;;;;;;43.70;27.80;;;;;;;13.32;42.25;99500.65;232477;1220;139178;-59
2022/04/30 21:43:20;;;;;;;43.50;26.50;;;;;;;13.22;42.36;99498.92;233343;1220;138722;-59
2022/04/30 21:48:23;;;;;;;43.10;26.90;;;;;;;13.05;42.35;99500.40;232908;1220;138717;-57
2022/04/30 21:53:27;;;;;;;46.20;26.10;;;;;;;12.95;42.87;99501.04;232392;1220;138294;-59
2022/04/30 22:03:54;;;;;;;44.10;25.80;;;;;;;12.79;43.15;99500.45;232029;1220;139466;-58
2022/04/30 22:08:57;;;;;;;44.70;27.80;;;;;;;12.71;43.56;99496.70;233458;1220;138511;-58
2022/04/30 22:14:00;;;;;;;43.90;26.70;;;;;;;12.65;43.42;99498.15;232717;1220;139071;-59
2022/04/30 22:19:09;;;;;;;42.10;26.20;;;;;;;12.56;43.54;99496.03;232668;1219;138656;-60
2022/04/30 22:24:13;;;;;;;41.70;27.10;;;;;;;12.48;43.46;99496.38;233292;1220;138710;-58
2022/04/30 22:29:16;;;;;;;43.30;28.00;;;;;;;12.43;43.84;99494.73;231877;1220;138713;-59
2022/04/30 22:34:19;;;;;;;45.90;28.00;;;;;;;12.39;44.24;99493.73;232197;1220;138847;-59
2022/04/30 22:42:46;;;;;;;40.20;25.60;;;;;;;12.29;44.29;99491.30;233335;1219;138814;-59
2022/04/30 22:44:46;;;;;;;42.10;25.80;;;;;;;12.22;44.68;99491.98;233573;1220;138935;-61
2022/04/30 22:49:49;;;;;;;43.00;25.40;;;;;;;12.18;44.56;99493.74;233707;1220;141499;-61
2022/04/30 22:54:52;;;;;;;43.20;24.30;;;;;;;12.20;44.75;99495.43;233791;1220;138831;-61
2022/04/30 22:59:56;;;;;;;38.40;24.40;;;;;;;12.21;44.80;99496.61;233712;1220;138294;-60
2022/04/30 23:05:00;;;;;;;36.80;23.90;;;;;;;12.18;45.34;99496.83;233484;1219;139585;-62
2022/04/30 23:10:05;;;;;;;38.30;24.00;;;;;;;12.13;44.84;99498.35;233661;1220;139337;-62
2022/04/30 23:15:11;;;;;;;40.70;25.20;;;;;;;12.06;45.26;99498.20;233449;1220;138337;-63
2022/04/30 23:20:16;;;;;;;35.70;23.00;;;;;;;12.03;45.01;99492.02;233129;1220;138241;-61
2022/04/30 23:25:19;;;;;;;34.80;24.00;;;;;;;12.00;45.38;99488.48;233203;1220;138637;-61
2022/04/30 23:30:24;;;;;;;36.80;23.30;;;;;;;11.98;45.62;99483.59;233066;1220;138764;-61
2022/04/30 23:35:29;;;;;;;40.40;23.30;;;;;;;12.00;45.71;99478.89;233065;1218;138313;-61
2022/04/30 23:40:32;;;;;;;35.40;22.80;;;;;;;12.01;46.10;99473.11;232865;1220;139291;-61
2022/04/30 23:45:37;;;;;;;35.20;22.80;;;;;;;12.01;45.57;99472.94;233121;1219;138394;-62
2022/04/30 23:50:40;;;;;;;37.10;22.80;;;;;;;11.97;45.79;99473.04;233143;1218;139567;-60
2022/04/30 23:55:43;;;;;;;35.30;22.00;;;;;;;11.95;45.81;99472.95;233065;1220;138737;-61
